Terminal Aerodrome Forecast
Issued by NWS

Home | Current Version | Previous Version | Graphics & Text | Print | Product List | Glossary Off
Versions: 1 2 3 4 5 6 7 8 9 10 11 12 13 14 15 16 17 18 19 20

000
FTUS43 KDDC 181439 AAB
TAFHYS
TAF AMD
KHYS 181439Z 1815/1912 33014KT P6SM VCSH SCT020 BKN045 OVC090
     FM182200 33018KT P6SM SKC
     FM190000 32010KT P6SM SKC=

USA.gov is the U.S. government's official web portal to all federal, state and local government web resources and services.